Time;durP1;ratioP1;P1;durP2;ratioP2;P2;SDS_P1;SDS_P2;PMS_P1;PMS_P2;Temp;Humidity;BMP_temperature;BMP_pressure;BME280_temperature;BME280_humidity;BME280_pressure;Samples;Min_cycle;Max_cycle;Signal;HPM_P1;HPM_P2
2022/12/05 00:00:12;;;;;;;59.67;24.47;;;2.70;99.90;;;;;;5051923;28;20662;-82
2022/12/05 00:02:39;;;;;;;61.47;23.93;;;2.70;99.90;;;;;;5052915;28;20213;-83
2022/12/05 00:05:06;;;;;;;60.70;24.83;;;2.70;99.90;;;;;;5051096;28;20226;-83
2022/12/05 00:07:34;;;;;;;56.37;23.63;;;2.60;99.90;;;;;;5053337;28;20607;-82
2022/12/05 00:10:01;;;;;;;60.10;25.13;;;2.70;99.90;;;;;;5062823;28;20206;-83
2022/12/05 00:12:28;;;;;;;58.07;22.43;;;2.70;99.90;;;;;;5055768;28;20199;-82
2022/12/05 00:14:55;;;;;;;57.10;24.20;;;2.70;99.90;;;;;;5072340;28;20198;-83
2022/12/05 00:17:22;;;;;;;53.70;22.30;;;2.70;99.90;;;;;;5069638;28;20613;-83
2022/12/05 00:19:48;;;;;;;54.47;23.43;;;2.70;99.90;;;;;;5063542;28;20557;-82
2022/12/05 00:22:15;;;;;;;55.10;22.47;;;2.70;99.90;;;;;;5065120;28;20195;-83
2022/12/05 00:24:43;;;;;;;59.07;25.17;;;2.70;99.90;;;;;;5059275;28;20202;-83
2022/12/05 00:27:10;;;;;;;51.37;22.70;;;2.80;99.90;;;;;;5072241;28;20232;-82
2022/12/05 00:29:37;;;;;;;61.53;29.10;;;2.70;99.90;;;;;;5067945;28;20212;-83
2022/12/05 00:32:04;;;;;;;54.17;26.93;;;2.70;99.90;;;;;;5052305;28;20549;-82
2022/12/05 00:34:31;;;;;;;64.23;27.03;;;2.70;99.90;;;;;;5069643;28;20198;-82
2022/12/05 00:36:58;;;;;;;55.47;24.90;;;2.70;99.90;;;;;;5051879;28;20691;-83
2022/12/05 00:39:25;;;;;;;55.67;24.30;;;2.70;99.90;;;;;;5062915;28;20207;-82
2022/12/05 00:41:53;;;;;;;59.07;24.40;;;2.80;99.90;;;;;;5065386;28;20198;-83
2022/12/05 00:44:20;;;;;;;56.53;24.13;;;2.70;99.90;;;;;;5065451;28;20663;-83
2022/12/05 00:46:47;;;;;;;54.87;22.37;;;2.70;99.90;;;;;;5072423;28;20228;-83
2022/12/05 00:49:13;;;;;;;62.93;24.03;;;2.80;99.90;;;;;;5061373;28;20201;-83
2022/12/05 00:51:42;;;;;;;56.03;25.40;;;2.80;99.90;;;;;;5064090;28;20202;-83
2022/12/05 00:54:14;;;;;;;53.33;23.70;;;2.80;99.90;;;;;;5064465;28;20203;-83
2022/12/05 00:56:41;;;;;;;52.53;23.97;;;2.80;99.90;;;;;;5076774;28;20218;-82
2022/12/05 00:59:15;;;;;;;53.77;23.57;;;2.80;99.90;;;;;;5064832;28;20594;-83
2022/12/05 01:01:42;;;;;;;54.33;23.70;;;2.80;99.90;;;;;;5062960;28;20454;-83
2022/12/05 01:04:11;;;;;;;56.07;23.73;;;2.80;99.90;;;;;;5052078;28;20581;-83
2022/12/05 01:06:38;;;;;;;57.23;23.97;;;2.80;99.90;;;;;;5065011;28;20568;-83
2022/12/05 01:09:07;;;;;;;50.50;23.87;;;2.80;99.90;;;;;;5055970;28;20195;-83
2022/12/05 01:11:35;;;;;;;58.57;23.23;;;2.80;99.90;;;;;;5069539;28;20654;-83
2022/12/05 01:14:02;;;;;;;52.33;23.33;;;2.80;99.90;;;;;;5061723;28;20203;-83
2022/12/05 01:16:32;;;;;;;51.13;23.53;;;2.80;99.90;;;;;;5056175;28;20587;-83
2022/12/05 01:19:01;;;;;;;49.77;23.17;;;2.80;99.90;;;;;;5059822;28;20199;-83
2022/12/05 01:21:28;;;;;;;54.83;23.60;;;2.80;99.90;;;;;;5055720;28;20659;-83
2022/12/05 01:23:55;;;;;;;47.33;22.70;;;2.80;99.90;;;;;;5068643;28;20658;-83
2022/12/05 01:26:23;;;;;;;53.50;23.23;;;2.80;99.90;;;;;;5055831;28;20230;-83
2022/12/05 01:28:50;;;;;;;53.10;23.40;;;2.80;99.90;;;;;;5059128;28;20203;-83
2022/12/05 01:31:21;;;;;;;51.60;24.13;;;2.80;99.90;;;;;;5055691;28;20207;-83
2022/12/05 01:33:49;;;;;;;49.63;22.93;;;2.80;99.90;;;;;;5066895;28;20621;-83
2022/12/05 01:36:17;;;;;;;51.70;22.97;;;2.80;99.90;;;;;;5055879;28;20680;-83
2022/12/05 01:38:44;;;;;;;51.27;22.93;;;2.80;99.90;;;;;;5066451;28;20203;-83
2022/12/05 01:41:14;;;;;;;51.00;22.60;;;2.80;99.90;;;;;;5075899;28;20210;-83
2022/12/05 01:43:58;;;;;;;52.80;24.40;;;2.80;99.90;;;;;;5062251;28;20195;-83
2022/12/05 01:46:26;;;;;;;52.40;22.57;;;2.90;99.90;;;;;;5073378;28;20230;-83
2022/12/05 01:49:01;;;;;;;50.23;22.90;;;2.90;99.90;;;;;;5075001;28;20199;-83
2022/12/05 01:51:28;;;;;;;51.70;22.60;;;2.80;99.90;;;;;;5070767;28;20197;-83
2022/12/05 01:53:54;;;;;;;50.93;22.17;;;2.80;99.90;;;;;;5058788;28;20203;-83
2022/12/05 01:56:22;;;;;;;52.73;22.63;;;2.80;99.90;;;;;;5059262;28;20222;-83
2022/12/05 01:58:49;;;;;;;47.67;21.47;;;2.80;99.90;;;;;;5075468;28;20206;-83
2022/12/05 02:01:17;;;;;;;46.93;22.50;;;2.80;99.90;;;;;;5075076;28;20581;-82
2022/12/05 02:03:46;;;;;;;49.90;21.97;;;2.80;99.90;;;;;;5074778;28;20214;-83
2022/12/05 02:06:14;;;;;;;52.80;22.97;;;2.90;99.90;;;;;;5074119;28;20241;-83
2022/12/05 02:08:42;;;;;;;51.20;21.90;;;2.80;99.90;;;;;;5075320;28;20210;-83
2022/12/05 02:11:09;;;;;;;50.03;22.27;;;2.80;99.90;;;;;;5074280;28;20225;-83
2022/12/05 02:13:55;;;;;;;49.33;22.67;;;2.90;99.90;;;;;;5074881;28;20650;-83
2022/12/05 02:16:32;;;;;;;48.33;22.13;;;2.80;99.90;;;;;;5075202;28;20214;-83
2022/12/05 02:19:11;;;;;;;46.67;22.70;;;2.90;99.90;;;;;;5073973;28;20210;-83
2022/12/05 02:22:06;;;;;;;52.07;22.47;;;2.90;99.90;;;;;;5073668;28;20208;-83
2022/12/05 02:25:05;;;;;;;49.03;22.90;;;2.90;99.90;;;;;;5074279;28;20658;-83
2022/12/05 02:27:48;;;;;;;45.00;20.30;;;2.80;99.90;;;;;;5062138;28;20230;-83
2022/12/05 02:30:18;;;;;;;44.13;21.30;;;2.90;99.90;;;;;;5069629;28;20202;-83
2022/12/05 02:33:03;;;;;;;45.03;21.00;;;2.90;99.90;;;;;;5073860;28;20575;-83
2022/12/05 02:35:49;;;;;;;45.50;23.47;;;2.90;99.90;;;;;;5084171;28;20193;-83
2022/12/05 02:38:23;;;;;;;48.33;20.77;;;2.90;99.90;;;;;;5091129;28;20637;-83
2022/12/05 02:41:02;;;;;;;43.57;19.87;;;2.80;99.90;;;;;;5074856;28;20198;-83
2022/12/05 02:43:33;;;;;;;41.90;19.50;;;2.90;99.90;;;;;;5072304;28;20198;-82
2022/12/05 02:46:08;;;;;;;43.70;20.20;;;2.90;99.90;;;;;;5071951;28;20218;-83
2022/12/05 02:48:37;;;;;;;42.13;21.03;;;2.90;99.90;;;;;;5073576;28;20565;-83
2022/12/05 02:51:05;;;;;;;43.50;22.00;;;2.90;99.90;;;;;;5068314;28;20203;-83
2022/12/05 02:53:34;;;;;;;43.37;20.33;;;2.90;99.90;;;;;;5053878;28;20297;-83
2022/12/05 02:56:02;;;;;;;39.20;19.07;;;2.90;99.90;;;;;;5054329;28;20226;-83
2022/12/05 02:58:34;;;;;;;39.87;19.50;;;2.90;99.90;;;;;;5052862;28;20207;-83
2022/12/05 03:01:03;;;;;;;44.17;22.27;;;2.90;99.90;;;;;;5054356;28;20219;-83
2022/12/05 03:03:31;;;;;;;39.47;21.83;;;2.90;99.90;;;;;;5053725;28;20214;-83
2022/12/05 03:06:04;;;;;;;42.33;22.00;;;2.90;99.90;;;;;;5053574;28;20229;-83
2022/12/05 03:08:39;;;;;;;39.00;18.37;;;3.00;99.90;;;;;;5053902;28;20211;-82
2022/12/05 03:11:06;;;;;;;35.50;18.30;;;2.90;99.90;;;;;;5072308;28;20542;-83
2022/12/05 03:13:44;;;;;;;36.37;20.80;;;2.90;99.90;;;;;;5070113;28;20214;-83
2022/12/05 03:16:18;;;;;;;36.83;20.43;;;2.90;99.90;;;;;;5071604;28;20221;-82
2022/12/05 03:18:49;;;;;;;36.00;19.77;;;2.90;99.90;;;;;;5069781;28;20202;-83
2022/12/05 03:21:25;;;;;;;36.47;17.90;;;2.90;99.90;;;;;;5054257;28;20213;-83
2022/12/05 03:23:56;;;;;;;37.47;18.27;;;2.90;99.90;;;;;;5053022;28;20207;-83
2022/12/05 03:26:36;;;;;;;34.40;18.33;;;2.90;99.90;;;;;;5056752;28;20222;-82
2022/12/05 03:29:16;;;;;;;34.53;17.47;;;2.90;99.90;;;;;;5067590;28;20293;-83
2022/12/05 03:31:52;;;;;;;34.90;17.73;;;2.90;99.90;;;;;;5053576;28;20221;-83
2022/12/05 03:34:24;;;;;;;33.33;17.07;;;2.90;99.90;;;;;;5051807;28;20206;-83
2022/12/05 03:36:53;;;;;;;35.93;17.63;;;2.90;99.90;;;;;;5056234;28;20707;-82
2022/12/05 03:39:23;;;;;;;33.10;15.60;;;2.90;99.90;;;;;;5057354;28;20203;-82
2022/12/05 03:41:58;;;;;;;36.73;18.37;;;2.90;99.90;;;;;;5059676;28;20194;-83
2022/12/05 03:44:32;;;;;;;34.87;16.07;;;2.90;99.90;;;;;;5068624;28;20267;-83
2022/12/05 03:47:03;;;;;;;34.80;17.17;;;2.90;99.90;;;;;;5060072;28;20241;-83
2022/12/05 03:49:34;;;;;;;34.00;17.20;;;2.90;99.90;;;;;;5053447;28;20229;-82
2022/12/05 03:52:08;;;;;;;31.27;16.53;;;2.90;99.90;;;;;;5073644;28;20658;-82
2022/12/05 03:54:39;;;;;;;37.17;17.97;;;2.90;99.90;;;;;;5071650;28;20626;-83
2022/12/05 03:57:10;;;;;;;31.20;15.87;;;2.90;99.90;;;;;;5054336;28;20226;-82
2022/12/05 03:59:39;;;;;;;33.90;16.67;;;2.90;99.90;;;;;;5053053;28;20228;-82
2022/12/05 04:02:13;;;;;;;31.20;15.17;;;2.90;99.90;;;;;;5067818;28;20199;-82
2022/12/05 04:04:46;;;;;;;33.90;16.43;;;2.90;99.90;;;;;;5085865;28;20212;-82
2022/12/05 04:07:14;;;;;;;34.50;17.17;;;2.90;99.90;;;;;;5091735;28;20229;-82
2022/12/05 04:09:45;;;;;;;31.73;17.37;;;2.90;99.90;;;;;;5074610;28;20197;-82
2022/12/05 04:12:19;;;;;;;31.07;16.03;;;2.90;99.90;;;;;;5073074;28;20241;-83
2022/12/05 04:14:50;;;;;;;37.43;16.80;;;2.90;99.90;;;;;;5062922;28;20556;-82
2022/12/05 04:17:24;;;;;;;32.17;16.40;;;2.90;99.90;;;;;;5051775;28;20229;-82
2022/12/05 04:22:40;;;;;;;32.60;15.73;;;2.90;99.90;;;;;;5051927;28;20569;-82
2022/12/05 04:28:03;;;;;;;32.23;17.23;;;2.90;99.90;;;;;;5066940;28;20271;-84
2022/12/05 04:30:36;;;;;;;33.13;18.47;;;2.80;99.90;;;;;;5054497;28;20209;-82
2022/12/05 04:33:10;;;;;;;31.63;16.70;;;2.90;99.90;;;;;;5058597;28;20206;-83
2022/12/05 04:35:43;;;;;;;30.87;16.00;;;2.80;99.90;;;;;;5074871;28;20202;-83
2022/12/05 04:38:15;;;;;;;33.70;15.97;;;2.80;99.90;;;;;;5075040;28;20202;-83
2022/12/05 04:40:48;;;;;;;37.90;16.27;;;2.80;99.90;;;;;;5063432;28;20569;-83
2022/12/05 04:43:18;;;;;;;34.30;19.27;;;2.80;99.90;;;;;;5072594;28;20224;-83
2022/12/05 04:45:46;;;;;;;31.20;15.23;;;2.70;99.90;;;;;;5073756;28;20272;-84
2022/12/05 04:48:16;;;;;;;31.00;18.47;;;2.70;99.90;;;;;;5079676;28;20226;-83
2022/12/05 04:50:44;;;;;;;32.37;17.90;;;2.70;99.90;;;;;;5080394;28;20287;-83
2022/12/05 04:53:13;;;;;;;32.77;18.97;;;2.70;99.90;;;;;;5079871;28;20592;-83
2022/12/05 04:55:43;;;;;;;31.80;15.93;;;2.70;99.90;;;;;;5079232;28;20692;-83
2022/12/05 04:58:13;;;;;;;32.97;15.83;;;2.80;99.90;;;;;;5080380;28;20210;-83
2022/12/05 05:00:47;;;;;;;31.03;16.03;;;2.70;99.90;;;;;;5080098;28;20202;-83
2022/12/05 05:03:21;;;;;;;32.93;17.53;;;2.70;99.90;;;;;;5079571;28;20246;-83
2022/12/05 05:05:51;;;;;;;32.67;17.03;;;2.70;99.90;;;;;;5079853;28;20244;-83
2022/12/05 05:08:19;;;;;;;30.50;14.83;;;2.80;99.90;;;;;;5080104;28;20228;-83
2022/12/05 05:10:55;;;;;;;29.23;15.87;;;2.70;99.90;;;;;;5080676;28;20619;-83
2022/12/05 05:13:22;;;;;;;30.17;15.37;;;2.70;99.90;;;;;;5080729;28;20209;-82
2022/12/05 05:15:49;;;;;;;32.17;15.83;;;2.70;99.90;;;;;;5080332;28;20301;-83
2022/12/05 05:18:17;;;;;;;30.87;14.97;;;2.70;99.90;;;;;;5080405;28;20198;-83
2022/12/05 05:20:43;;;;;;;30.10;15.27;;;2.70;99.90;;;;;;5079926;28;20217;-83
2022/12/05 05:23:10;;;;;;;32.33;15.80;;;2.70;99.90;;;;;;5079512;28;20198;-83
2022/12/05 05:25:37;;;;;;;29.70;15.03;;;2.60;99.90;;;;;;5078855;28;20210;-83
2022/12/05 05:28:04;;;;;;;30.10;14.10;;;2.60;99.90;;;;;;5078662;28;20228;-83
2022/12/05 05:30:31;;;;;;;31.93;15.37;;;2.60;99.90;;;;;;5079445;28;20198;-83
2022/12/05 05:32:59;;;;;;;29.47;14.97;;;2.60;99.90;;;;;;5079473;28;20297;-83
2022/12/05 05:35:27;;;;;;;31.50;15.20;;;2.60;99.90;;;;;;5078874;28;20665;-83
2022/12/05 05:37:54;;;;;;;28.40;14.07;;;2.60;99.90;;;;;;5079935;28;20206;-83
2022/12/05 05:40:21;;;;;;;30.43;15.90;;;2.50;99.90;;;;;;5079899;28;20202;-83
2022/12/05 05:42:49;;;;;;;30.03;14.93;;;2.50;99.90;;;;;;5079278;28;20202;-83
2022/12/05 05:45:16;;;;;;;31.77;17.93;;;2.50;99.90;;;;;;5079984;28;20210;-83
2022/12/05 05:47:43;;;;;;;30.53;15.50;;;2.60;99.90;;;;;;5079936;28;20233;-83
2022/12/05 05:50:11;;;;;;;29.50;14.97;;;2.50;99.90;;;;;;5079896;28;20205;-83
2022/12/05 05:52:39;;;;;;;30.40;14.70;;;2.50;99.90;;;;;;5078936;28;20203;-83
2022/12/05 05:55:08;;;;;;;29.70;16.73;;;2.50;99.90;;;;;;5079670;28;20712;-83
2022/12/05 05:57:35;;;;;;;29.13;14.37;;;2.50;99.90;;;;;;5079028;28;20219;-83
2022/12/05 06:00:04;;;;;;;29.33;14.70;;;2.50;99.90;;;;;;5079040;28;20571;-83
2022/12/05 06:02:33;;;;;;;28.03;16.20;;;2.50;99.90;;;;;;5079458;28;20198;-83
2022/12/05 06:05:00;;;;;;;27.93;16.00;;;2.50;99.90;;;;;;5079876;28;20214;-83
2022/12/05 06:07:27;;;;;;;28.03;14.23;;;2.40;99.90;;;;;;5079055;28;20232;-83
2022/12/05 06:09:55;;;;;;;29.37;15.50;;;2.40;99.90;;;;;;5077853;28;20212;-83
2022/12/05 06:12:22;;;;;;;27.43;13.83;;;2.40;99.90;;;;;;5077182;28;20237;-83
2022/12/05 06:14:50;;;;;;;26.00;13.77;;;2.40;99.90;;;;;;5077286;28;20203;-83
2022/12/05 06:17:17;;;;;;;27.97;14.00;;;2.40;99.90;;;;;;5078654;28;20694;-83
2022/12/05 06:19:44;;;;;;;28.37;14.17;;;2.40;99.90;;;;;;5077730;28;20214;-83
2022/12/05 06:22:11;;;;;;;29.23;15.40;;;2.40;99.90;;;;;;5077314;28;20550;-83
2022/12/05 06:24:37;;;;;;;29.60;14.93;;;2.40;99.90;;;;;;5077655;28;20202;-83
2022/12/05 06:27:06;;;;;;;25.73;12.77;;;2.30;99.90;;;;;;5077732;28;20236;-83
2022/12/05 06:29:34;;;;;;;26.20;12.90;;;2.30;99.90;;;;;;5078546;28;20294;-83
2022/12/05 06:32:01;;;;;;;28.63;14.33;;;2.20;99.90;;;;;;5075052;28;20210;-83
2022/12/05 06:34:28;;;;;;;26.00;13.63;;;2.10;99.90;;;;;;5074151;28;20195;-83
2022/12/05 06:36:54;;;;;;;27.30;13.20;;;2.10;99.90;;;;;;5075189;28;20214;-83
2022/12/05 06:39:21;;;;;;;24.20;12.77;;;2.10;99.90;;;;;;5078409;28;20206;-83
2022/12/05 06:41:48;;;;;;;23.67;13.17;;;2.10;99.90;;;;;;5078796;28;20696;-83
2022/12/05 06:44:16;;;;;;;23.70;12.87;;;2.00;99.90;;;;;;5078684;28;20202;-82
2022/12/05 06:46:43;;;;;;;24.90;12.00;;;2.00;99.90;;;;;;5077845;28;20226;-82
2022/12/05 06:49:10;;;;;;;25.63;12.97;;;2.00;99.90;;;;;;5063242;28;20229;-83
2022/12/05 06:51:37;;;;;;;27.27;13.00;;;2.00;99.90;;;;;;5058089;28;20211;-83
2022/12/05 06:54:04;;;;;;;25.07;12.67;;;2.00;99.90;;;;;;5057572;28;20213;-83
2022/12/05 06:56:31;;;;;;;26.00;12.73;;;2.00;99.90;;;;;;5056648;28;20482;-83
2022/12/05 06:58:58;;;;;;;23.13;11.27;;;2.00;99.90;;;;;;5055756;28;20203;-83
2022/12/05 07:01:37;;;;;;;27.73;13.43;;;2.00;99.90;;;;;;5057219;28;20218;-83
2022/12/05 07:04:06;;;;;;;22.73;12.40;;;2.00;99.90;;;;;;5057394;28;20306;-83
2022/12/05 07:06:33;;;;;;;25.77;11.30;;;2.00;99.90;;;;;;5058226;28;20222;-83
2022/12/05 07:09:00;;;;;;;23.47;12.03;;;1.90;99.90;;;;;;5056910;28;20226;-83
2022/12/05 07:11:27;;;;;;;23.77;13.67;;;2.00;99.90;;;;;;5060734;28;20200;-83
2022/12/05 07:13:54;;;;;;;24.63;12.33;;;2.00;99.90;;;;;;5093538;28;20658;-83
2022/12/05 07:16:21;;;;;;;21.87;11.20;;;2.00;99.90;;;;;;5087624;28;20226;-83
2022/12/05 07:18:50;;;;;;;24.23;11.60;;;2.00;99.90;;;;;;5079415;28;20195;-83
2022/12/05 07:21:19;;;;;;;24.13;14.03;;;2.00;99.90;;;;;;5064647;28;20203;-83
2022/12/05 07:23:46;;;;;;;25.67;14.00;;;2.00;99.90;;;;;;5057947;28;20660;-83
2022/12/05 07:26:15;;;;;;;23.07;13.27;;;1.90;99.90;;;;;;5057606;28;20223;-82
2022/12/05 07:28:42;;;;;;;25.00;12.30;;;1.90;99.90;;;;;;5058461;28;20258;-83
2022/12/05 07:31:11;;;;;;;24.40;11.87;;;1.90;99.90;;;;;;5059425;28;20214;-83
2022/12/05 07:33:38;;;;;;;25.03;12.50;;;1.90;99.90;;;;;;5056644;28;20578;-83
2022/12/05 07:36:09;;;;;;;25.70;12.63;;;1.90;99.90;;;;;;5057726;28;20333;-83
2022/12/05 07:38:36;;;;;;;22.03;11.13;;;1.90;99.90;;;;;;5057018;28;20290;-83
2022/12/05 07:41:05;;;;;;;22.83;12.03;;;1.90;99.90;;;;;;5057970;28;20225;-83
2022/12/05 07:43:32;;;;;;;21.17;10.97;;;1.90;99.90;;;;;;5057011;28;20199;-82
2022/12/05 07:46:02;;;;;;;21.43;10.80;;;1.90;99.90;;;;;;5058013;28;20237;-83
2022/12/05 07:48:29;;;;;;;22.73;11.00;;;1.90;99.90;;;;;;5055542;28;20286;-83
2022/12/05 07:51:00;;;;;;;21.53;11.57;;;1.90;99.90;;;;;;5056460;28;20208;-83
2022/12/05 07:53:28;;;;;;;21.70;11.33;;;1.90;99.90;;;;;;5055945;28;20210;-82
2022/12/05 07:55:55;;;;;;;20.63;11.57;;;1.90;99.90;;;;;;5063810;28;20218;-83
2022/12/05 07:58:22;;;;;;;22.20;13.00;;;1.90;99.90;;;;;;5075040;28;20205;-83
2022/12/05 08:00:49;;;;;;;20.67;11.17;;;1.80;99.90;;;;;;5074016;28;20202;-83
2022/12/05 08:03:16;;;;;;;23.63;11.07;;;1.90;99.90;;;;;;5076330;28;20668;-83
2022/12/05 08:05:43;;;;;;;22.63;10.97;;;1.90;99.90;;;;;;5077539;28;20230;-83
2022/12/05 08:08:10;;;;;;;19.90;10.77;;;1.90;99.90;;;;;;5063700;28;20230;-83
2022/12/05 08:10:38;;;;;;;24.63;12.50;;;1.90;99.90;;;;;;5057481;28;20282;-83
2022/12/05 08:13:06;;;;;;;22.60;12.23;;;1.90;99.90;;;;;;5055824;28;20219;-82
2022/12/05 08:15:34;;;;;;;19.87;11.10;;;1.90;99.90;;;;;;5055679;28;20306;-83
2022/12/05 08:18:01;;;;;;;24.10;11.93;;;1.90;99.90;;;;;;5058018;28;20249;-83
2022/12/05 08:20:28;;;;;;;22.47;11.23;;;1.80;99.90;;;;;;5055902;28;20209;-83
2022/12/05 08:22:55;;;;;;;20.43;11.40;;;1.80;99.90;;;;;;5056710;28;20696;-83
2022/12/05 08:25:21;;;;;;;19.03;11.57;;;1.90;99.90;;;;;;5057510;28;20203;-83
2022/12/05 08:27:50;;;;;;;21.40;10.33;;;1.80;99.90;;;;;;5054496;28;20218;-83
2022/12/05 08:30:16;;;;;;;20.27;10.60;;;1.80;99.90;;;;;;5057391;28;20209;-83
2022/12/05 08:32:43;;;;;;;21.30;10.67;;;1.80;99.90;;;;;;5056895;28;20693;-83
2022/12/05 08:35:10;;;;;;;18.73;11.33;;;1.80;99.90;;;;;;5057612;28;20210;-83
2022/12/05 08:37:37;;;;;;;19.33;11.87;;;1.80;99.90;;;;;;5055607;28;20695;-83
2022/12/05 08:40:05;;;;;;;19.60;10.43;;;1.80;99.90;;;;;;5055493;28;20222;-83
2022/12/05 08:42:31;;;;;;;21.23;11.63;;;1.90;99.90;;;;;;5053391;28;20203;-83
2022/12/05 08:44:59;;;;;;;19.77;11.63;;;1.80;99.90;;;;;;5068323;28;20198;-83
2022/12/05 08:47:27;;;;;;;19.73;11.27;;;1.90;99.90;;;;;;5084849;28;20228;-83
2022/12/05 08:49:53;;;;;;;19.83;9.93;;;1.90;99.90;;;;;;5074981;28;20201;-83
2022/12/05 08:52:21;;;;;;;20.40;10.80;;;1.90;99.90;;;;;;5069140;28;20592;-83
2022/12/05 08:54:48;;;;;;;21.97;11.17;;;1.90;99.90;;;;;;5056165;28;20297;-83
2022/12/05 08:57:15;;;;;;;18.20;11.13;;;1.80;99.90;;;;;;5055576;28;20258;-83
2022/12/05 08:59:42;;;;;;;18.57;9.83;;;1.80;99.90;;;;;;5056692;28;20207;-83
2022/12/05 09:02:10;;;;;;;19.23;10.10;;;1.90;99.90;;;;;;5057049;28;20203;-83
2022/12/05 09:04:37;;;;;;;18.40;10.33;;;1.90;99.90;;;;;;5054829;28;20309;-84
2022/12/05 09:07:05;;;;;;;20.03;11.17;;;1.90;99.90;;;;;;5065386;28;20309;-83
2022/12/05 09:09:32;;;;;;;20.60;10.67;;;1.90;99.90;;;;;;5076077;28;20253;-83
2022/12/05 09:11:59;;;;;;;19.60;10.47;;;1.90;99.90;;;;;;5070828;28;20580;-83
2022/12/05 09:14:31;;;;;;;22.90;12.00;;;1.90;99.90;;;;;;5075254;28;20198;-83
2022/12/05 09:16:59;;;;;;;22.40;11.00;;;1.90;99.90;;;;;;5064938;28;20288;-83
2022/12/05 09:19:28;;;;;;;20.57;11.40;;;1.90;99.90;;;;;;5056389;28;20199;-83
2022/12/05 09:21:55;;;;;;;20.90;11.17;;;1.90;99.90;;;;;;5054954;28;20296;-83
2022/12/05 09:24:22;;;;;;;20.53;11.13;;;1.90;99.90;;;;;;5055300;28;20199;-83
2022/12/05 09:26:50;;;;;;;25.57;12.13;;;1.90;99.90;;;;;;5054132;28;20227;-84
2022/12/05 09:29:16;;;;;;;21.57;11.13;;;1.90;99.90;;;;;;5077106;28;20222;-83
2022/12/05 09:31:44;;;;;;;19.43;11.00;;;1.90;99.90;;;;;;5094211;28;20575;-83
2022/12/05 09:34:12;;;;;;;20.23;12.13;;;1.90;99.90;;;;;;5079498;28;20209;-83
2022/12/05 09:36:41;;;;;;;21.00;10.93;;;2.00;99.90;;;;;;5078423;28;20226;-83
2022/12/05 09:39:08;;;;;;;21.73;12.83;;;2.00;99.90;;;;;;5062130;28;20210;-83
2022/12/05 09:42:04;;;;;;;20.83;11.20;;;2.00;99.90;;;;;;5058833;28;20237;-83
2022/12/05 09:44:44;;;;;;;20.90;12.63;;;2.00;99.90;;;;;;5059041;28;20202;-83
2022/12/05 09:47:21;;;;;;;21.33;13.17;;;2.10;99.90;;;;;;5058642;28;20222;-83
2022/12/05 09:49:53;;;;;;;22.20;11.83;;;2.10;99.90;;;;;;5058192;28;20234;-83
2022/12/05 09:52:26;;;;;;;23.27;11.47;;;2.10;99.90;;;;;;5058567;28;20227;-83
2022/12/05 09:54:53;;;;;;;23.37;12.50;;;2.10;99.90;;;;;;5057946;28;20207;-83
2022/12/05 09:57:30;;;;;;;23.60;11.90;;;2.10;99.90;;;;;;5059475;28;20278;-82
2022/12/05 09:59:58;;;;;;;21.07;11.77;;;2.10;99.90;;;;;;5058356;28;20209;-83
2022/12/05 10:02:32;;;;;;;21.67;11.67;;;2.10;99.90;;;;;;5059302;28;20228;-83
2022/12/05 10:05:05;;;;;;;23.63;12.20;;;2.10;99.90;;;;;;5065832;28;20214;-83
2022/12/05 10:07:37;;;;;;;22.33;11.97;;;2.10;99.90;;;;;;5078646;28;20597;-82
2022/12/05 10:10:21;;;;;;;22.40;10.87;;;2.10;99.90;;;;;;5072778;28;20218;-83
2022/12/05 10:13:01;;;;;;;20.87;12.17;;;2.20;99.90;;;;;;5097987;28;20201;-82
2022/12/05 10:15:32;;;;;;;22.80;11.90;;;2.10;99.90;;;;;;5082508;28;20211;-83
2022/12/05 10:18:03;;;;;;;22.87;10.80;;;2.00;99.90;;;;;;5080510;28;20210;-83
2022/12/05 10:20:34;;;;;;;23.13;11.47;;;2.00;99.90;;;;;;5076908;28;20202;-83
2022/12/05 10:23:08;;;;;;;21.67;10.67;;;2.00;99.90;;;;;;5066281;28;20211;-83
2022/12/05 10:25:35;;;;;;;21.97;11.93;;;2.00;99.90;;;;;;5066792;28;20205;-83
2022/12/05 10:28:09;;;;;;;22.47;11.20;;;2.10;99.90;;;;;;5081209;28;20212;-83
2022/12/05 10:30:37;;;;;;;21.37;12.00;;;2.10;99.90;;;;;;5074107;28;20215;-83
2022/12/05 10:33:12;;;;;;;21.23;11.30;;;2.10;99.90;;;;;;5073799;28;20529;-83
2022/12/05 10:35:40;;;;;;;23.17;11.03;;;2.10;99.90;;;;;;5090930;28;20208;-83
2022/12/05 10:38:16;;;;;;;23.83;11.60;;;2.10;99.90;;;;;;5082871;28;20662;-83
2022/12/05 10:40:49;;;;;;;21.30;11.63;;;2.10;99.90;;;;;;5074928;28;20210;-82
2022/12/05 10:43:24;;;;;;;22.13;11.07;;;2.10;99.90;;;;;;5077309;28;20286;-83
2022/12/05 10:45:51;;;;;;;21.27;10.70;;;2.10;99.90;;;;;;5060277;28;20238;-83
2022/12/05 10:48:20;;;;;;;20.60;11.27;;;2.10;99.90;;;;;;5057596;28;20207;-83
2022/12/05 10:50:50;;;;;;;22.63;10.57;;;2.10;99.90;;;;;;5077712;28;20214;-83
2022/12/05 10:53:23;;;;;;;21.90;10.30;;;2.10;99.90;;;;;;5076543;28;20644;-83
2022/12/05 10:55:50;;;;;;;21.50;11.50;;;2.10;99.90;;;;;;5077794;28;20222;-82
2022/12/05 10:58:22;;;;;;;19.90;11.80;;;2.20;99.90;;;;;;5079419;28;20552;-82
2022/12/05 11:00:50;;;;;;;20.53;11.70;;;2.20;99.90;;;;;;5079557;28;20633;-83
2022/12/05 11:03:25;;;;;;;20.40;10.60;;;2.20;99.90;;;;;;5078781;28;20222;-84
2022/12/05 11:05:54;;;;;;;19.37;10.47;;;2.10;99.90;;;;;;5079953;28;20221;-83
2022/12/05 11:08:25;;;;;;;21.43;11.27;;;2.20;99.90;;;;;;5081242;28;20209;-83
2022/12/05 11:11:04;;;;;;;19.93;10.93;;;2.20;99.90;;;;;;5078746;28;20293;-83
2022/12/05 11:13:31;;;;;;;22.80;12.37;;;2.20;99.90;;;;;;5079173;28;20204;-83
2022/12/05 11:15:58;;;;;;;19.50;10.63;;;2.30;99.90;;;;;;5077748;28;20218;-83
2022/12/05 11:18:30;;;;;;;20.73;11.30;;;2.30;99.90;;;;;;5077987;28;20575;-83
2022/12/05 11:21:08;;;;;;;20.90;10.70;;;2.30;99.90;;;;;;5077375;28;20275;-83
2022/12/05 11:23:36;;;;;;;22.00;11.37;;;2.40;99.90;;;;;;5077671;28;20206;-83
2022/12/05 11:26:03;;;;;;;19.40;10.53;;;2.40;99.90;;;;;;5076336;28;20230;-83
2022/12/05 11:28:36;;;;;;;20.80;11.17;;;2.40;99.90;;;;;;5075397;28;20600;-83
2022/12/05 11:31:07;;;;;;;20.67;10.00;;;2.40;99.90;;;;;;5076443;28;20202;-82
2022/12/05 11:33:34;;;;;;;20.23;11.03;;;2.50;99.90;;;;;;5076585;28;20203;-83
2022/12/05 11:36:10;;;;;;;20.00;11.13;;;2.50;99.90;;;;;;5075652;28;20218;-83
2022/12/05 11:38:41;;;;;;;19.67;9.97;;;2.50;99.90;;;;;;5076797;28;20228;-82
2022/12/05 11:41:31;;;;;;;20.23;10.40;;;2.50;99.90;;;;;;5076855;28;20214;-83
2022/12/05 11:44:23;;;;;;;18.50;10.77;;;2.50;99.90;;;;;;5076214;28;20206;-82
2022/12/05 11:47:01;;;;;;;18.17;11.43;;;2.50;99.90;;;;;;5076977;28;20233;-83
2022/12/05 11:49:47;;;;;;;19.13;10.13;;;2.60;99.90;;;;;;5076875;28;20293;-83
2022/12/05 11:52:27;;;;;;;17.90;9.80;;;2.50;99.90;;;;;;5078114;28;20265;-82
2022/12/05 11:55:02;;;;;;;18.80;9.70;;;2.60;99.90;;;;;;5077504;28;20212;-82
2022/12/05 11:57:53;;;;;;;19.73;10.30;;;2.60;99.90;;;;;;5077547;28;20228;-83
2022/12/05 12:00:23;;;;;;;17.33;8.60;;;2.70;99.90;;;;;;5078386;28;20358;-83
2022/12/05 12:03:18;;;;;;;18.37;9.57;;;2.60;99.90;;;;;;5077961;28;20245;-83
2022/12/05 12:05:56;;;;;;;14.93;9.17;;;2.60;99.90;;;;;;5077523;28;20233;-83
2022/12/05 12:08:26;;;;;;;15.73;8.60;;;2.70;99.90;;;;;;5078493;28;20213;-83
2022/12/05 12:11:08;;;;;;;18.33;9.27;;;2.70;99.90;;;;;;5078204;28;20198;-83
2022/12/05 12:13:54;;;;;;;17.73;9.63;;;2.80;99.90;;;;;;5077634;28;20233;-83
2022/12/05 12:16:33;;;;;;;20.03;9.23;;;2.90;99.90;;;;;;5078221;28;20264;-82
2022/12/05 12:19:15;;;;;;;15.77;8.70;;;2.90;99.90;;;;;;5079045;28;20284;-83
2022/12/05 12:22:04;;;;;;;17.90;8.33;;;2.90;99.90;;;;;;5077484;28;20285;-83
2022/12/05 12:24:52;;;;;;;16.97;9.80;;;2.80;99.90;;;;;;5077797;28;20209;-83
2022/12/05 12:27:30;;;;;;;15.13;8.07;;;2.80;99.90;;;;;;5077984;28;20839;-83
2022/12/05 12:30:06;;;;;;;15.50;8.30;;;2.80;99.90;;;;;;5078157;28;20226;-82
2022/12/05 12:32:42;;;;;;;18.20;9.50;;;2.90;99.90;;;;;;5077481;28;20210;-83
2022/12/05 12:35:28;;;;;;;14.67;8.13;;;2.80;99.90;;;;;;5077793;28;20599;-82
2022/12/05 12:38:17;;;;;;;16.10;8.27;;;2.90;99.90;;;;;;5077891;28;20202;-83
2022/12/05 12:40:49;;;;;;;14.97;7.80;;;2.90;99.90;;;;;;5072444;28;20199;-83
2022/12/05 12:43:38;;;;;;;16.40;9.00;;;2.90;99.90;;;;;;5074938;28;20199;-82
2022/12/05 12:46:22;;;;;;;14.83;8.27;;;3.00;99.90;;;;;;5074651;28;20296;-85
2022/12/05 12:49:03;;;;;;;11.70;7.37;;;2.90;99.90;;;;;;5054926;28;20734;-83
2022/12/05 12:51:32;;;;;;;13.50;7.57;;;2.90;99.90;;;;;;5053787;28;20199;-82
2022/12/05 12:54:23;;;;;;;13.57;7.60;;;2.90;99.90;;;;;;5052211;28;20225;-83
2022/12/05 12:56:58;;;;;;;12.27;7.10;;;3.00;99.90;;;;;;5052865;28;20290;-83
2022/12/05 12:59:43;;;;;;;12.07;7.43;;;2.90;99.90;;;;;;5053149;28;20738;-83
2022/12/05 13:02:17;;;;;;;13.07;6.90;;;2.90;99.90;;;;;;5052079;28;20203;-84